createdAt,value
2022-11-17T00:02:21.380Z,9.91
2022-11-17T00:05:46.189Z,9.85
2022-11-17T00:09:12.204Z,9.98
2022-11-17T00:12:52.317Z,10.02
2022-11-17T00:16:20.346Z,10.01
2022-11-17T00:20:02.543Z,9.97
2022-11-17T00:23:24.453Z,9.91
2022-11-17T00:27:11.719Z,9.93
2022-11-17T00:30:51.696Z,10.02
2022-11-17T00:34:22.214Z,9.84
2022-11-17T00:38:02.170Z,9.91
2022-11-17T00:41:25.750Z,9.93
2022-11-17T00:44:47.413Z,10.01
2022-11-17T00:48:13.864Z,10.06
2022-11-17T00:51:41.083Z,10.14
2022-11-17T00:55:05.459Z,10.22
2022-11-17T00:58:27.088Z,10.15
2022-11-17T01:01:48.869Z,10.08
2022-11-17T01:05:10.454Z,9.93
2022-11-17T01:08:34.609Z,9.90
2022-11-17T01:11:56.148Z,10.01
2022-11-17T01:15:20.045Z,9.97
2022-11-17T01:18:43.059Z,9.87
2022-11-17T01:22:04.569Z,9.87
2022-11-17T01:25:26.144Z,9.80
2022-11-17T01:28:48.669Z,9.87
2022-11-17T01:32:12.889Z,9.95
2022-11-17T01:35:34.397Z,9.83
2022-11-17T01:38:56.276Z,9.84
2022-11-17T01:42:25.573Z,9.54
2022-11-17T01:45:49.674Z,9.71
2022-11-17T01:49:19.178Z,9.75
2022-11-17T01:52:41.286Z,9.85
2022-11-17T01:56:11.106Z,9.51
2022-11-17T01:59:36.756Z,9.51
2022-11-17T02:03:07.340Z,9.46
2022-11-17T02:06:37.545Z,9.54
2022-11-17T02:10:00.327Z,9.26
2022-11-17T02:13:22.404Z,9.37
2022-11-17T02:16:44.008Z,9.35
2022-11-17T02:20:10.029Z,9.48
2022-11-17T02:23:37.902Z,9.54
2022-11-17T02:27:14.701Z,9.63
2022-11-17T02:30:55.464Z,9.56
2022-11-17T02:34:37.283Z,9.70
2022-11-17T02:38:22.893Z,9.90
2022-11-17T02:41:52.942Z,9.90
2022-11-17T02:45:20.811Z,9.91
2022-11-17T02:48:49.642Z,9.90
2022-11-17T02:52:12.369Z,9.90
2022-11-17T02:55:38.739Z,9.87
2022-11-17T02:59:03.058Z,9.90
2022-11-17T03:02:40.012Z,9.84
2022-11-17T03:06:32.500Z,9.91
2022-11-17T03:10:00.001Z,9.85
2022-11-17T03:13:46.405Z,9.44
2022-11-17T03:17:19.228Z,9.51
2022-11-17T03:20:55.580Z,9.61
2022-11-17T03:24:21.843Z,9.67
2022-11-17T03:27:48.409Z,9.60
2022-11-17T03:31:11.720Z,9.67
2022-11-17T03:34:37.357Z,9.66
2022-11-17T03:38:05.570Z,9.63
2022-11-17T03:41:30.216Z,9.51
2022-11-17T03:45:05.787Z,9.36
2022-11-17T03:48:35.681Z,9.40
2022-11-17T03:51:57.831Z,9.44
2022-11-17T03:55:19.528Z,9.27
2022-11-17T03:58:54.367Z,9.22
2022-11-17T04:02:22.581Z,9.01
2022-11-17T04:05:44.141Z,8.93
2022-11-17T04:09:07.971Z,8.65
2022-11-17T04:12:48.192Z,8.75
2022-11-17T04:16:09.768Z,8.84
2022-11-17T04:19:31.360Z,8.99
2022-11-17T04:23:07.271Z,9.01
2022-11-17T04:26:47.512Z,9.12
2022-11-17T04:30:09.754Z,9.16
2022-11-17T04:33:31.387Z,8.95
2022-11-17T04:36:52.968Z,9.09
2022-11-17T04:40:14.773Z,8.79
2022-11-17T04:43:39.098Z,8.81
2022-11-17T04:47:03.752Z,8.79
2022-11-17T04:50:25.277Z,8.99
2022-11-17T04:53:47.979Z,9.14
2022-11-17T04:57:09.498Z,9.37
2022-11-17T05:00:31.062Z,9.39
2022-11-17T05:03:58.005Z,9.18
2022-11-17T05:07:19.651Z,8.82
2022-11-17T05:11:00.444Z,8.84
2022-11-17T05:14:26.561Z,9.09
2022-11-17T05:17:48.056Z,9.12
2022-11-17T05:21:13.345Z,9.29
2022-11-17T05:24:37.196Z,9.36
2022-11-17T05:27:58.725Z,9.44
2022-11-17T05:31:20.283Z,9.44
2022-11-17T05:34:41.812Z,9.48
2022-11-17T05:38:06.441Z,9.11
2022-11-17T05:41:31.672Z,9.14
2022-11-17T05:44:55.486Z,9.04
2022-11-17T05:48:17.052Z,8.88
2022-11-17T05:51:41.492Z,9.01
2022-11-17T05:55:03.042Z,9.06
2022-11-17T05:58:30.124Z,9.02
2022-11-17T06:01:54.543Z,9.16
2022-11-17T06:05:20.170Z,9.25
2022-11-17T06:08:45.116Z,9.32
2022-11-17T06:12:06.766Z,9.36
2022-11-17T06:15:29.011Z,8.97
2022-11-17T06:19:00.506Z,9.12
2022-11-17T06:22:22.386Z,9.08
2022-11-17T06:25:44.769Z,8.85
2022-11-17T06:29:06.467Z,9.15
2022-11-17T06:32:31.856Z,9.37
2022-11-17T06:35:53.710Z,9.08
2022-11-17T06:39:15.271Z,9.27
2022-11-17T06:42:58.393Z,9.56
2022-11-17T06:46:19.967Z,9.51
2022-11-17T06:49:41.498Z,9.54
2022-11-17T06:53:08.255Z,9.56
2022-11-17T06:56:33.208Z,9.46
2022-11-17T06:59:54.778Z,9.51
2022-11-17T07:03:16.479Z,9.29
2022-11-17T07:06:40.524Z,9.12
2022-11-17T07:10:02.207Z,9.46
2022-11-17T07:13:24.704Z,9.60
2022-11-17T07:16:46.245Z,9.73
2022-11-17T07:20:10.688Z,9.75
2022-11-17T07:23:33.636Z,9.94
2022-11-17T07:26:55.208Z,10.09
2022-11-17T07:30:16.831Z,10.31
2022-11-17T07:33:40.887Z,10.67
2022-11-17T07:37:02.459Z,10.63
2022-11-17T07:40:26.320Z,10.76
2022-11-17T07:43:49.990Z,10.39
2022-11-17T07:47:11.551Z,10.63
2022-11-17T07:50:33.766Z,10.42
2022-11-17T07:53:57.564Z,10.35
2022-11-17T07:57:20.402Z,10.29
2022-11-17T08:00:44.718Z,10.45
2022-11-17T08:04:06.503Z,10.23
2022-11-17T08:07:28.192Z,10.01
2022-11-17T08:10:55.040Z,10.23
2022-11-17T08:14:16.670Z,10.05
2022-11-17T08:17:38.330Z,10.15
2022-11-17T08:21:03.911Z,10.28
2022-11-17T08:24:25.599Z,10.26
2022-11-17T08:27:51.898Z,10.25
2022-11-17T08:31:16.127Z,10.33
2022-11-17T08:34:41.224Z,10.79
2022-11-17T08:38:03.058Z,11.36
2022-11-17T08:41:26.979Z,12.04
2022-11-17T08:44:50.924Z,12.08
2022-11-17T08:48:12.439Z,12.62
2022-11-17T08:51:34.058Z,13.98
2022-11-17T08:54:58.166Z,13.79
2022-11-17T08:58:19.716Z,12.86
2022-11-17T09:01:41.413Z,12.25
2022-11-17T09:05:05.992Z,12.30
2022-11-17T09:08:45.122Z,12.62
2022-11-17T09:12:13.178Z,13.26
2022-11-17T09:15:37.071Z,13.13
2022-11-17T09:18:58.888Z,13.75
2022-11-17T09:22:25.151Z,14.30
2022-11-17T09:25:49.005Z,15.03
2022-11-17T09:29:10.648Z,13.54
2022-11-17T09:32:35.832Z,13.17
2022-11-17T09:35:57.672Z,12.88
2022-11-17T09:39:19.321Z,13.43
2022-11-17T09:42:41.270Z,12.80
2022-11-17T09:46:29.988Z,12.59
2022-11-17T09:49:59.249Z,12.62
2022-11-17T09:53:25.381Z,12.79
2022-11-17T09:56:47.885Z,13.61
2022-11-17T10:00:23.450Z,14.10
2022-11-17T10:03:47.854Z,15.10
2022-11-17T10:07:14.658Z,15.09
2022-11-17T10:10:42.586Z,15.97
2022-11-17T10:14:14.196Z,16.25
2022-11-17T10:17:35.846Z,17.22
2022-11-17T10:21:02.670Z,16.95
2022-11-17T10:24:39.403Z,18.58
2022-11-17T10:28:00.971Z,18.68
2022-11-17T10:31:24.850Z,18.75
2022-11-17T10:34:47.290Z,18.48
2022-11-17T10:38:19.140Z,18.08
2022-11-17T10:41:47.588Z,18.07
2022-11-17T10:45:17.061Z,17.07
2022-11-17T10:48:40.836Z,15.94
2022-11-17T10:52:11.513Z,15.63
2022-11-17T10:55:36.971Z,15.94
2022-11-17T10:59:00.669Z,15.46
2022-11-17T11:02:33.839Z,16.12
2022-11-17T11:05:56.756Z,16.59
2022-11-17T11:09:25.144Z,16.67
2022-11-17T11:13:24.254Z,16.40
2022-11-17T11:16:50.584Z,17.42
2022-11-17T11:20:18.458Z,17.59
2022-11-17T11:23:46.319Z,16.81
2022-11-17T11:27:28.175Z,17.25
2022-11-17T11:31:13.403Z,17.59
2022-11-17T11:34:34.913Z,16.40
2022-11-17T11:38:27.010Z,15.16
2022-11-17T11:42:04.829Z,14.27
2022-11-17T11:45:54.088Z,13.75
2022-11-17T11:49:21.251Z,13.76
2022-11-17T11:52:53.888Z,13.37
2022-11-17T11:56:23.589Z,12.95
2022-11-17T11:59:53.532Z,12.97
2022-11-17T12:03:21.363Z,13.43
2022-11-17T12:06:45.933Z,13.64
2022-11-17T12:10:33.013Z,13.07
2022-11-17T12:13:57.273Z,13.59
2022-11-17T12:17:26.261Z,13.61
2022-11-17T12:20:56.106Z,13.45
2022-11-17T12:24:33.631Z,13.68
2022-11-17T12:27:55.479Z,13.87
2022-11-17T12:31:42.930Z,13.79
2022-11-17T12:35:22.532Z,13.16
2022-11-17T12:38:44.140Z,13.00
2022-11-17T12:42:09.209Z,12.79
2022-11-17T12:45:55.833Z,13.44
2022-11-17T12:49:31.860Z,13.81
2022-11-17T12:53:12.203Z,15.02
2022-11-17T12:56:56.472Z,15.16
2022-11-17T13:00:21.979Z,15.06
2022-11-17T13:04:12.914Z,15.42
2022-11-17T13:07:34.793Z,15.08
2022-11-17T13:11:17.615Z,14.33
2022-11-17T13:14:59.118Z,14.64
2022-11-17T13:18:35.646Z,14.67
2022-11-17T13:22:03.737Z,14.54
2022-11-17T13:25:25.333Z,14.64
2022-11-17T13:28:47.995Z,14.50
2022-11-17T13:32:16.817Z,14.02
2022-11-17T13:35:38.361Z,13.90
2022-11-17T13:39:03.078Z,13.95
2022-11-17T13:42:32.010Z,13.50
2022-11-17T13:45:56.270Z,13.37
2022-11-17T13:49:35.155Z,13.40
2022-11-17T13:52:58.144Z,13.33
2022-11-17T13:56:39.269Z,13.23
2022-11-17T14:00:01.613Z,13.06
2022-11-17T14:03:43.037Z,13.02
2022-11-17T14:07:04.697Z,12.93
2022-11-17T14:10:33.687Z,13.03
2022-11-17T14:14:01.149Z,12.95
2022-11-17T14:17:23.037Z,12.85
2022-11-17T14:20:44.770Z,12.89
2022-11-17T14:24:11.547Z,12.92
2022-11-17T14:27:33.213Z,12.95
2022-11-17T14:30:58.239Z,12.86
2022-11-17T14:34:19.887Z,12.78
2022-11-17T14:37:42.357Z,12.78
2022-11-17T14:41:09.886Z,12.72
2022-11-17T14:44:31.439Z,12.65
2022-11-17T14:47:53.090Z,12.61
2022-11-17T14:51:17.611Z,12.59
2022-11-17T14:54:39.198Z,12.56
2022-11-17T14:58:03.328Z,12.55
2022-11-17T15:01:31.448Z,12.51
2022-11-17T15:04:53.722Z,12.55
2022-11-17T15:08:18.052Z,12.61
2022-11-17T15:11:42.108Z,12.59
2022-11-17T15:15:07.400Z,12.45
2022-11-17T15:18:32.165Z,12.44
2022-11-17T15:21:53.842Z,12.31
2022-11-17T15:25:15.462Z,12.27
2022-11-17T15:28:37.158Z,12.30
2022-11-17T15:31:58.735Z,12.25
2022-11-17T15:35:20.304Z,12.25
2022-11-17T15:38:41.995Z,12.32
2022-11-17T15:42:03.703Z,12.35
2022-11-17T15:45:28.465Z,12.42
2022-11-17T15:48:52.987Z,12.42
2022-11-17T15:52:14.526Z,12.27
2022-11-17T15:55:39.387Z,12.13
2022-11-17T15:59:05.228Z,12.04
2022-11-17T16:02:26.877Z,11.97
2022-11-17T16:05:48.392Z,11.93
2022-11-17T16:09:10.697Z,11.91
2022-11-17T16:12:34.907Z,11.89
2022-11-17T16:15:56.874Z,11.91
2022-11-17T16:19:20.833Z,11.90
2022-11-17T16:22:42.884Z,11.86
2022-11-17T16:26:06.738Z,11.72
2022-11-17T16:29:28.333Z,11.66
2022-11-17T16:32:49.881Z,11.70
2022-11-17T16:36:11.462Z,11.63
2022-11-17T16:39:37.843Z,11.61
2022-11-17T16:43:02.224Z,11.67
2022-11-17T16:46:29.298Z,11.63
2022-11-17T16:49:53.126Z,11.70
2022-11-17T16:53:14.734Z,11.66
2022-11-17T16:56:41.299Z,11.76
2022-11-17T17:00:03.902Z,11.86
2022-11-17T17:03:25.480Z,11.89
2022-11-17T17:06:49.511Z,11.86
2022-11-17T17:10:16.181Z,11.77
2022-11-17T17:13:38.231Z,11.77
2022-11-17T17:16:59.868Z,11.80
2022-11-17T17:20:24.028Z,11.79
2022-11-17T17:23:45.895Z,11.76
2022-11-17T17:27:07.478Z,11.80
2022-11-17T17:30:29.063Z,11.83
2022-11-17T17:33:55.628Z,11.82
2022-11-17T17:37:18.424Z,11.84
2022-11-17T17:40:39.927Z,11.86
2022-11-17T17:44:09.328Z,11.90
2022-11-17T17:47:30.843Z,11.93
2022-11-17T17:50:52.397Z,11.97
2022-11-17T17:54:21.394Z,12.00
2022-11-17T17:57:42.973Z,12.04
2022-11-17T18:01:15.245Z,12.01
2022-11-17T18:04:36.822Z,12.01
2022-11-17T18:07:58.335Z,11.94
2022-11-17T18:11:24.323Z,11.90
2022-11-17T18:14:48.523Z,11.89
2022-11-17T18:18:10.112Z,11.93
2022-11-17T18:21:32.117Z,11.94
2022-11-17T18:24:58.047Z,11.86
2022-11-17T18:28:24.551Z,11.83
2022-11-17T18:31:47.509Z,11.83
2022-11-17T18:35:09.371Z,11.84
2022-11-17T18:38:35.079Z,11.91
2022-11-17T18:41:56.619Z,11.89
2022-11-17T18:45:18.358Z,11.80
2022-11-17T18:48:45.116Z,11.83
2022-11-17T18:52:09.838Z,11.79
2022-11-17T18:55:31.407Z,11.83
2022-11-17T18:58:53.167Z,11.75
2022-11-17T19:02:14.741Z,11.66
2022-11-17T19:05:36.384Z,11.70
2022-11-17T19:09:00.807Z,12.23
2022-11-17T19:12:24.760Z,12.95
2022-11-17T19:15:46.363Z,13.37
2022-11-17T19:19:08.557Z,13.75
2022-11-17T19:22:35.294Z,13.83
2022-11-17T19:25:57.034Z,13.76
2022-11-17T19:29:20.168Z,13.65
2022-11-17T19:32:41.964Z,13.28
2022-11-17T19:36:06.184Z,12.73
2022-11-17T19:39:30.008Z,12.24
2022-11-17T19:42:51.538Z,11.90
2022-11-17T19:46:15.558Z,11.80
2022-11-17T19:49:37.084Z,11.76
2022-11-17T19:52:58.638Z,11.82
2022-11-17T19:56:21.062Z,11.82
2022-11-17T19:59:42.616Z,11.97
2022-11-17T20:03:04.257Z,12.48
2022-11-17T20:06:29.286Z,13.04
2022-11-17T20:09:50.808Z,13.33
2022-11-17T20:13:12.447Z,13.41
2022-11-17T20:16:38.679Z,13.34
2022-11-17T20:20:00.276Z,13.30
2022-11-17T20:23:22.727Z,13.04
2022-11-17T20:26:46.376Z,12.70
2022-11-17T20:30:14.827Z,12.42
2022-11-17T20:33:41.679Z,12.13
2022-11-17T20:37:03.255Z,11.95
2022-11-17T20:40:24.825Z,11.80
2022-11-17T20:43:54.767Z,11.86
2022-11-17T20:47:18.650Z,12.18
2022-11-17T20:50:40.184Z,12.52
2022-11-17T20:54:01.743Z,12.73
2022-11-17T20:57:23.289Z,12.93
2022-11-17T21:00:44.931Z,13.16
2022-11-17T21:04:06.571Z,13.26
2022-11-17T21:07:28.208Z,13.26
2022-11-17T21:10:58.163Z,13.27
2022-11-17T21:14:23.184Z,13.18
2022-11-17T21:18:03.206Z,13.13
2022-11-17T21:21:24.848Z,13.14
2022-11-17T21:24:51.114Z,13.04
2022-11-17T21:28:17.696Z,12.75
2022-11-17T21:31:41.828Z,12.45
2022-11-17T21:35:04.112Z,12.20
2022-11-17T21:38:25.623Z,12.00
2022-11-17T21:41:49.488Z,11.84
2022-11-17T21:45:13.392Z,12.07
2022-11-17T21:48:36.576Z,12.32
2022-11-17T21:51:58.088Z,12.58
2022-11-17T21:55:22.035Z,12.95
2022-11-17T21:58:45.987Z,13.13
2022-11-17T22:02:09.646Z,13.11
2022-11-17T22:05:31.165Z,13.07
2022-11-17T22:08:54.560Z,13.07
2022-11-17T22:12:16.092Z,13.11
2022-11-17T22:15:40.150Z,12.83
2022-11-17T22:19:02.267Z,12.59
2022-11-17T22:22:24.114Z,12.24
2022-11-17T22:25:55.855Z,12.00
2022-11-17T22:29:19.788Z,11.89
2022-11-17T22:32:45.118Z,11.72
2022-11-17T22:36:10.474Z,11.59
2022-11-17T22:39:32.028Z,11.55
2022-11-17T22:42:53.616Z,11.49
2022-11-17T22:46:18.376Z,11.36
2022-11-17T22:49:39.943Z,11.28
2022-11-17T22:53:01.935Z,11.22
2022-11-17T22:56:25.735Z,11.14
2022-11-17T22:59:47.256Z,11.12
2022-11-17T23:03:09.416Z,11.18
2022-11-17T23:06:33.424Z,11.17
2022-11-17T23:09:54.992Z,11.11
2022-11-17T23:13:18.834Z,11.01
2022-11-17T23:16:40.972Z,10.87
2022-11-17T23:20:02.603Z,10.91
2022-11-17T23:23:24.172Z,11.01
2022-11-17T23:26:48.306Z,10.83
2022-11-17T23:30:13.399Z,10.81
2022-11-17T23:33:37.238Z,10.93
2022-11-17T23:37:03.556Z,10.97
2022-11-17T23:40:25.543Z,10.81
2022-11-17T23:43:50.863Z,10.57
2022-11-17T23:47:12.461Z,10.43
2022-11-17T23:50:36.348Z,10.38
2022-11-17T23:53:59.921Z,10.29
2022-11-17T23:57:21.532Z,10.45
